createdAt,value
2019-02-10T00:00:16.820Z,7.31
2019-02-10T00:01:16.779Z,7.31
2019-02-10T00:02:16.717Z,7.39
2019-02-10T00:03:16.689Z,7.39
2019-02-10T00:04:16.681Z,7.41
2019-02-10T00:05:16.660Z,7.39
2019-02-10T00:06:24.344Z,7.33
2019-02-10T00:07:17.719Z,7.43
2019-02-10T00:08:16.648Z,7.40
2019-02-10T00:09:16.647Z,7.37
2019-02-10T00:10:16.597Z,7.28
2019-02-10T00:11:16.618Z,7.31
2019-02-10T00:12:16.624Z,7.31
2019-02-10T00:13:16.596Z,7.19
2019-02-10T00:14:16.605Z,7.14
2019-02-10T00:15:16.600Z,7.13
2019-02-10T00:16:16.675Z,7.19
2019-02-10T00:17:16.577Z,7.18
2019-02-10T00:18:16.572Z,7.18
2019-02-10T00:19:16.535Z,7.15
2019-02-10T00:20:16.564Z,7.07
2019-02-10T00:21:16.545Z,6.97
2019-02-10T00:22:16.725Z,7.05
2019-02-10T00:23:16.476Z,7.08
2019-02-10T00:24:16.505Z,7.07
2019-02-10T00:25:16.462Z,6.90
2019-02-10T00:26:16.467Z,6.95
2019-02-10T00:27:16.449Z,6.89
2019-02-10T00:28:16.426Z,6.89
2019-02-10T00:29:16.437Z,7.00
2019-02-10T00:30:16.407Z,6.89
2019-02-10T00:31:16.404Z,6.86
2019-02-10T00:32:16.372Z,6.92
2019-02-10T00:33:16.362Z,6.85
2019-02-10T00:34:16.409Z,6.87
2019-02-10T00:35:16.385Z,6.89
2019-02-10T00:36:16.374Z,6.93
2019-02-10T00:37:16.361Z,6.92
2019-02-10T00:38:16.322Z,6.93
2019-02-10T00:39:16.348Z,6.93
2019-02-10T00:40:16.327Z,6.90
2019-02-10T00:41:16.329Z,6.93
2019-02-10T00:42:16.302Z,6.93
2019-02-10T00:43:16.284Z,6.90
2019-02-10T00:44:16.330Z,7.04
2019-02-10T00:45:16.245Z,7.05
2019-02-10T00:46:16.278Z,7.08
2019-02-10T00:47:16.286Z,7.07
2019-02-10T00:48:16.245Z,7.00
2019-02-10T00:49:16.287Z,7.01
2019-02-10T00:50:16.293Z,7.14
2019-02-10T00:51:16.246Z,7.15
2019-02-10T00:52:16.245Z,7.15
2019-02-10T00:53:16.202Z,7.13
2019-02-10T00:54:16.161Z,7.14
2019-02-10T00:55:16.300Z,7.15
2019-02-10T00:56:16.126Z,7.15
2019-02-10T00:57:16.141Z,7.13
2019-02-10T00:58:16.130Z,7.11
2019-02-10T00:59:16.158Z,7.04
2019-02-10T01:00:16.121Z,7.05
2019-02-10T01:01:16.101Z,7.10
2019-02-10T01:02:16.085Z,7.01
2019-02-10T01:03:16.146Z,7.11
2019-02-10T01:04:16.085Z,7.01
2019-02-10T01:05:16.041Z,7.08
2019-02-10T01:06:16.103Z,7.04
2019-02-10T01:07:16.179Z,7.08
2019-02-10T01:08:16.085Z,7.00
2019-02-10T01:09:16.074Z,7.07
2019-02-10T01:10:16.041Z,7.05
2019-02-10T01:11:16.106Z,7.04
2019-02-10T01:12:16.068Z,7.08
2019-02-10T01:13:16.057Z,7.07
2019-02-10T01:14:15.970Z,7.05
2019-02-10T01:15:15.990Z,7.03
2019-02-10T01:16:15.955Z,7.03
2019-02-10T01:17:16.001Z,6.92
2019-02-10T01:18:25.389Z,6.95
2019-02-10T01:19:24.897Z,6.93
2019-02-10T01:20:24.953Z,7.03
2019-02-10T01:21:24.504Z,6.95
2019-02-10T01:22:15.846Z,6.92
2019-02-10T01:23:15.834Z,6.95
2019-02-10T01:24:25.029Z,6.90
2019-02-10T01:25:25.022Z,6.83
2019-02-10T01:26:25.037Z,6.90
2019-02-10T01:27:15.812Z,6.87
2019-02-10T01:28:15.781Z,6.74
2019-02-10T01:29:15.787Z,6.64
2019-02-10T01:30:15.911Z,6.67
2019-02-10T01:31:15.777Z,6.65
2019-02-10T01:32:15.769Z,6.62
2019-02-10T01:33:15.752Z,6.54
2019-02-10T01:34:15.725Z,6.49
2019-02-10T01:35:15.748Z,6.39
2019-02-10T01:36:15.726Z,6.41
2019-02-10T01:37:15.828Z,6.36
2019-02-10T01:38:15.711Z,6.36
2019-02-10T01:39:15.675Z,6.26
2019-02-10T01:40:15.725Z,6.32
2019-02-10T01:41:15.646Z,6.17
2019-02-10T01:42:15.630Z,6.20
2019-02-10T01:43:15.646Z,6.13
2019-02-10T01:44:15.617Z,6.16
2019-02-10T01:45:15.616Z,6.07
2019-02-10T01:46:15.615Z,5.99
2019-02-10T01:47:15.622Z,6.02
2019-02-10T01:48:15.595Z,5.97
2019-02-10T01:49:15.557Z,6.01
2019-02-10T01:50:15.595Z,5.99
2019-02-10T01:51:15.551Z,6.05
2019-02-10T01:52:15.553Z,5.92
2019-02-10T01:53:15.571Z,5.99
2019-02-10T01:54:15.510Z,5.92
2019-02-10T01:55:15.492Z,5.79
2019-02-10T01:56:15.512Z,5.90
2019-02-10T01:57:15.494Z,5.81
2019-02-10T01:58:15.485Z,5.90
2019-02-10T01:59:15.541Z,5.87
2019-02-10T02:00:15.474Z,5.83
2019-02-10T02:01:15.445Z,5.80
2019-02-10T02:02:15.437Z,5.80
2019-02-10T02:03:15.438Z,5.73
2019-02-10T02:04:15.437Z,5.77
2019-02-10T02:05:15.396Z,5.83
2019-02-10T02:06:15.390Z,5.62
2019-02-10T02:07:15.411Z,5.80
2019-02-10T02:08:15.401Z,5.70
2019-02-10T02:09:15.375Z,5.72
2019-02-10T02:10:15.364Z,5.62
2019-02-10T02:11:15.342Z,5.56
2019-02-10T02:12:15.331Z,5.69
2019-02-10T02:13:15.321Z,5.61
2019-02-10T02:14:15.313Z,5.62
2019-02-10T02:15:15.294Z,5.64
2019-02-10T02:16:15.365Z,5.69
2019-02-10T02:17:15.272Z,5.55
2019-02-10T02:18:15.272Z,5.55
2019-02-10T02:19:15.270Z,5.52
2019-02-10T02:20:15.256Z,5.49
2019-02-10T02:21:15.221Z,5.58
2019-02-10T02:22:15.220Z,5.54
2019-02-10T02:23:15.213Z,5.51
2019-02-10T02:24:15.222Z,5.44
2019-02-10T02:25:15.198Z,5.46
2019-02-10T02:26:15.328Z,5.47
2019-02-10T02:27:15.227Z,5.51
2019-02-10T02:28:15.174Z,5.52
2019-02-10T02:29:15.181Z,5.55
2019-02-10T02:30:15.178Z,5.55
2019-02-10T02:31:15.148Z,5.49
2019-02-10T02:32:15.187Z,5.46
2019-02-10T02:33:15.161Z,5.51
2019-02-10T02:34:15.133Z,5.43
2019-02-10T02:35:15.101Z,5.38
2019-02-10T02:36:15.173Z,5.38
2019-02-10T02:37:15.091Z,5.44
2019-02-10T02:38:15.092Z,5.34
2019-02-10T02:39:15.100Z,5.36
2019-02-10T02:40:15.058Z,5.28
2019-02-10T02:41:15.071Z,5.29
2019-02-10T02:42:15.050Z,5.26
2019-02-10T02:43:15.029Z,5.29
2019-02-10T02:44:15.067Z,5.38
2019-02-10T02:45:15.004Z,5.31
2019-02-10T02:46:15.039Z,5.33
2019-02-10T02:47:14.987Z,5.34
2019-02-10T02:48:14.999Z,5.29
2019-02-10T02:49:14.952Z,5.31
2019-02-10T02:50:14.955Z,5.37
2019-02-10T02:51:14.899Z,5.33
2019-02-10T02:52:14.931Z,5.33
2019-02-10T02:53:14.950Z,5.31
2019-02-10T02:54:14.881Z,5.31
2019-02-10T02:55:14.871Z,5.29
2019-02-10T02:56:14.858Z,5.31
2019-02-10T02:57:14.863Z,5.36
2019-02-10T02:58:14.869Z,5.36
2019-02-10T02:59:14.870Z,5.34
2019-02-10T03:00:14.835Z,5.36
2019-02-10T03:01:14.810Z,5.33
2019-02-10T03:02:14.792Z,5.28
2019-02-10T03:03:14.807Z,5.29
2019-02-10T03:04:14.775Z,5.34
2019-02-10T03:05:14.903Z,5.34
2019-02-10T03:06:14.799Z,5.34
2019-02-10T03:07:18.069Z,5.34
2019-02-10T03:08:14.766Z,5.33
2019-02-10T03:09:14.790Z,5.25
2019-02-10T03:10:14.728Z,5.18
2019-02-10T03:11:14.703Z,5.20
2019-02-10T03:12:14.728Z,5.22
2019-02-10T03:13:14.761Z,5.28
2019-02-10T03:14:14.736Z,5.20
2019-02-10T03:15:14.716Z,5.22
2019-02-10T03:16:14.671Z,5.19
2019-02-10T03:17:14.720Z,5.19
2019-02-10T03:18:14.693Z,5.22
2019-02-10T03:19:14.701Z,5.19
2019-02-10T03:20:14.636Z,5.19
2019-02-10T03:21:14.716Z,5.22
2019-02-10T03:22:14.599Z,5.15
2019-02-10T03:23:14.572Z,5.16
2019-02-10T03:24:14.554Z,5.13
2019-02-10T03:25:14.768Z,5.18
2019-02-10T03:26:14.604Z,5.05
2019-02-10T03:27:14.765Z,5.05
2019-02-10T03:28:14.563Z,5.05
2019-02-10T03:29:14.527Z,5.05
2019-02-10T03:30:14.560Z,5.10
2019-02-10T03:31:14.570Z,5.08
2019-02-10T03:32:14.493Z,5.02
2019-02-10T03:33:14.516Z,5.07
2019-02-10T03:34:14.462Z,5.10
2019-02-10T03:35:14.494Z,5.02
2019-02-10T03:36:14.486Z,5.07
2019-02-10T03:37:14.509Z,5.07
2019-02-10T03:38:14.426Z,5.05
2019-02-10T03:39:14.427Z,5.02
2019-02-10T03:40:14.428Z,4.98
2019-02-10T03:41:14.414Z,4.94
2019-02-10T03:42:14.400Z,4.94
2019-02-10T03:43:14.389Z,4.98
2019-02-10T03:44:14.341Z,4.97
2019-02-10T03:45:14.390Z,4.95
2019-02-10T03:46:14.323Z,5.05
2019-02-10T03:47:14.298Z,5.04
2019-02-10T03:48:14.326Z,4.98
2019-02-10T03:49:14.281Z,5.01
2019-02-10T03:50:14.367Z,5.01
2019-02-10T03:51:14.288Z,4.98
2019-02-10T03:52:14.465Z,4.95
2019-02-10T03:53:14.295Z,4.95
2019-02-10T03:54:14.674Z,4.95
2019-02-10T03:55:14.293Z,4.94
2019-02-10T03:56:14.265Z,5.07
2019-02-10T03:57:14.290Z,4.92
2019-02-10T03:58:14.217Z,4.98
2019-02-10T03:59:14.208Z,4.92
2019-02-10T04:00:14.212Z,5.00
2019-02-10T04:01:14.304Z,4.97
2019-02-10T04:02:14.159Z,4.95
2019-02-10T04:03:14.273Z,4.97
2019-02-10T04:04:14.137Z,4.92
2019-02-10T04:05:16.599Z,4.89
2019-02-10T04:06:14.170Z,4.90
2019-02-10T04:07:15.120Z,4.92
2019-02-10T04:08:16.672Z,4.95
2019-02-10T04:09:14.088Z,4.97
2019-02-10T04:10:14.189Z,4.84
2019-02-10T04:11:14.047Z,4.92
2019-02-10T04:12:14.058Z,4.84
2019-02-10T04:13:14.278Z,4.87
2019-02-10T04:14:15.090Z,4.94
2019-02-10T04:15:15.018Z,4.79
2019-02-10T04:16:14.077Z,4.87
2019-02-10T04:17:14.024Z,4.89
2019-02-10T04:18:14.064Z,4.86
2019-02-10T04:19:14.070Z,4.84
2019-02-10T04:20:14.022Z,4.86
2019-02-10T04:21:13.996Z,4.83
2019-02-10T04:22:13.934Z,4.79
2019-02-10T04:23:13.955Z,4.75
2019-02-10T04:24:13.919Z,4.75
2019-02-10T04:25:13.921Z,4.78
2019-02-10T04:26:13.997Z,4.70
2019-02-10T04:27:14.118Z,4.70
2019-02-10T04:28:13.895Z,4.67
2019-02-10T04:29:13.890Z,4.82
2019-02-10T04:30:13.898Z,4.79
2019-02-10T04:31:13.893Z,4.71
2019-02-10T04:32:13.843Z,4.82
2019-02-10T04:33:13.841Z,4.71
2019-02-10T04:34:13.861Z,4.78
2019-02-10T04:35:13.812Z,4.68
2019-02-10T04:37:30.973Z,4.78
2019-02-10T04:38:32.131Z,4.76
2019-02-10T04:39:30.854Z,4.78
2019-02-10T04:40:30.830Z,4.76
2019-02-10T04:41:30.836Z,4.71
2019-02-10T04:42:30.826Z,4.75
2019-02-10T04:43:30.836Z,4.75
2019-02-10T04:44:30.783Z,4.75
2019-02-10T04:45:30.776Z,4.71
2019-02-10T04:46:30.768Z,4.76
2019-02-10T04:47:30.819Z,4.75
2019-02-10T04:48:30.769Z,4.74
2019-02-10T04:49:31.216Z,4.83
2019-02-10T04:50:30.737Z,4.76
2019-02-10T04:51:30.739Z,4.78
2019-02-10T04:52:31.708Z,4.76
2019-02-10T04:53:32.155Z,4.79
2019-02-10T04:54:31.736Z,4.75
2019-02-10T04:55:31.166Z,4.78
2019-02-10T04:56:30.881Z,4.76
2019-02-10T04:57:30.977Z,4.82
2019-02-10T04:58:30.731Z,4.75
2019-02-10T04:59:32.321Z,4.76
2019-02-10T05:00:30.633Z,4.71
2019-02-10T05:01:30.615Z,4.71
2019-02-10T05:02:30.961Z,4.79
2019-02-10T05:03:31.024Z,4.71
2019-02-10T05:04:30.620Z,4.70
2019-02-10T05:05:31.568Z,4.71
2019-02-10T05:06:31.280Z,4.76
2019-02-10T05:07:33.838Z,4.68
2019-02-10T05:08:31.466Z,4.75
2019-02-10T05:09:32.421Z,4.67
2019-02-10T05:10:31.662Z,4.76
2019-02-10T05:11:32.410Z,4.75
2019-02-10T05:12:31.439Z,4.68
2019-02-10T05:13:31.057Z,4.76
2019-02-10T05:14:31.118Z,4.74
2019-02-10T05:15:30.466Z,4.78
2019-02-10T05:16:30.505Z,4.71
2019-02-10T05:17:30.471Z,4.82
2019-02-10T05:18:30.496Z,4.74
2019-02-10T05:19:30.466Z,4.84
2019-02-10T05:20:30.450Z,4.78
2019-02-10T05:21:30.409Z,4.76
2019-02-10T05:22:30.408Z,4.75
2019-02-10T05:23:30.393Z,4.79
2019-02-10T05:24:30.385Z,4.86
2019-02-10T05:25:30.512Z,4.82
2019-02-10T05:26:30.362Z,4.83
2019-02-10T05:27:30.352Z,4.90
2019-02-10T05:28:30.352Z,4.86
2019-02-10T05:29:30.342Z,4.90
2019-02-10T05:30:30.347Z,4.84
2019-02-10T05:31:30.304Z,4.86
2019-02-10T05:32:30.294Z,4.86
2019-02-10T05:33:30.290Z,4.86
2019-02-10T05:34:30.306Z,4.94
2019-02-10T05:35:30.337Z,4.90
2019-02-10T05:36:30.360Z,4.92
2019-02-10T05:37:30.250Z,4.95
2019-02-10T05:38:30.232Z,4.89
2019-02-10T05:39:30.234Z,4.98
2019-02-10T05:40:30.261Z,4.90
2019-02-10T05:41:30.252Z,4.95
2019-02-10T05:42:30.189Z,4.98
2019-02-10T05:43:30.187Z,5.04
2019-02-10T05:44:30.207Z,5.07
2019-02-10T05:45:30.166Z,5.04
2019-02-10T05:46:30.182Z,5.05
2019-02-10T05:47:30.129Z,5.02
2019-02-10T05:48:30.135Z,5.07
2019-02-10T05:49:30.174Z,5.02
2019-02-10T05:50:30.107Z,5.02
2019-02-10T05:51:30.111Z,5.08
2019-02-10T05:52:32.674Z,5.07
2019-02-10T05:53:30.809Z,5.10
2019-02-10T05:54:30.137Z,5.10
2019-02-10T05:55:30.078Z,5.18
2019-02-10T05:56:30.168Z,5.10
2019-02-10T05:57:30.114Z,5.16
2019-02-10T05:58:30.059Z,5.16
2019-02-10T05:59:30.011Z,5.19
2019-02-10T06:00:30.031Z,5.18
2019-02-10T06:01:29.991Z,5.22
2019-02-10T06:02:29.991Z,5.22
2019-02-10T06:03:29.987Z,5.25
2019-02-10T06:04:29.987Z,5.19
2019-02-10T06:05:29.940Z,5.18
2019-02-10T06:06:29.936Z,5.34
2019-02-10T06:07:29.927Z,5.38
2019-02-10T06:08:29.910Z,5.26
2019-02-10T06:09:29.922Z,5.28
2019-02-10T06:10:29.907Z,5.28
2019-02-10T06:11:29.868Z,5.38
2019-02-10T06:12:29.900Z,5.37
2019-02-10T06:13:29.856Z,5.33
2019-02-10T06:14:30.018Z,5.46
2019-02-10T06:15:29.924Z,5.43
2019-02-10T06:16:29.826Z,5.34
2019-02-10T06:17:29.828Z,5.38
2019-02-10T06:18:29.791Z,5.38
2019-02-10T06:19:29.792Z,5.41
2019-02-10T06:20:29.819Z,5.49
2019-02-10T06:21:29.811Z,5.44
2019-02-10T06:22:29.758Z,5.52
2019-02-10T06:23:29.756Z,5.52
2019-02-10T06:24:29.774Z,5.49
2019-02-10T06:25:29.748Z,5.51
2019-02-10T06:26:29.729Z,5.55
2019-02-10T06:27:29.709Z,5.55
2019-02-10T06:28:29.740Z,5.56
2019-02-10T06:29:29.687Z,5.56
2019-02-10T06:30:29.733Z,5.47
2019-02-10T06:31:29.689Z,5.52
2019-02-10T06:32:29.656Z,5.44
2019-02-10T06:33:29.663Z,5.59
2019-02-10T06:34:29.641Z,5.64
2019-02-10T06:35:29.619Z,5.56
2019-02-10T06:36:29.649Z,5.56
2019-02-10T06:37:29.623Z,5.61
2019-02-10T06:38:29.605Z,5.62
2019-02-10T06:39:29.589Z,5.59
2019-02-10T06:40:29.592Z,5.65
2019-02-10T06:41:29.560Z,5.59
2019-02-10T06:42:29.538Z,5.67
2019-02-10T06:43:29.546Z,5.54
2019-02-10T06:44:29.547Z,5.65
2019-02-10T06:45:29.537Z,5.65
2019-02-10T06:46:29.543Z,5.59
2019-02-10T06:47:29.503Z,5.67
2019-02-10T06:48:29.491Z,5.70
2019-02-10T06:49:29.473Z,5.61
2019-02-10T06:50:29.482Z,5.72
2019-02-10T06:51:29.465Z,5.67
2019-02-10T06:52:29.467Z,5.69
2019-02-10T06:53:29.449Z,5.72
2019-02-10T06:54:29.431Z,5.69
2019-02-10T06:55:29.413Z,5.72
2019-02-10T06:56:29.394Z,5.64
2019-02-10T06:57:29.419Z,5.72
2019-02-10T06:58:29.394Z,5.77
2019-02-10T06:59:29.370Z,5.77
2019-02-10T07:00:29.363Z,5.73
2019-02-10T07:01:29.421Z,5.83
2019-02-10T07:02:29.374Z,5.84
2019-02-10T07:03:29.365Z,5.79
2019-02-10T07:04:29.335Z,5.81
2019-02-10T07:05:29.344Z,5.84
2019-02-10T07:06:29.304Z,5.84
2019-02-10T07:07:29.296Z,5.83
2019-02-10T07:08:30.719Z,5.88
2019-02-10T07:09:29.275Z,5.90
2019-02-10T07:10:29.263Z,5.91
2019-02-10T07:11:29.284Z,5.90
2019-02-10T07:12:29.283Z,5.95
2019-02-10T07:13:29.248Z,5.91
2019-02-10T07:14:29.236Z,5.90
2019-02-10T07:15:29.234Z,5.92
2019-02-10T07:16:29.202Z,5.87
2019-02-10T07:17:29.208Z,5.94
2019-02-10T07:18:29.221Z,5.99
2019-02-10T07:19:29.173Z,5.88
2019-02-10T07:20:29.147Z,5.91
2019-02-10T07:21:29.148Z,5.91
2019-02-10T07:22:29.134Z,5.88
2019-02-10T07:23:29.133Z,5.95
2019-02-10T07:24:29.160Z,5.97
2019-02-10T07:25:29.105Z,5.98
2019-02-10T07:26:29.091Z,6.09
2019-02-10T07:27:29.106Z,6.01
2019-02-10T07:28:29.076Z,6.01
2019-02-10T07:29:29.079Z,6.12
2019-02-10T07:30:29.086Z,6.07
2019-02-10T07:31:29.045Z,6.15
2019-02-10T07:32:29.035Z,6.13
2019-02-10T07:33:29.030Z,6.13
2019-02-10T07:34:29.052Z,6.15
2019-02-10T07:35:29.034Z,6.13
2019-02-10T07:36:28.998Z,6.15
2019-02-10T07:37:28.981Z,6.17
2019-02-10T07:38:28.976Z,6.16
2019-02-10T07:39:28.969Z,6.20
2019-02-10T07:40:29.005Z,6.19
2019-02-10T07:41:28.926Z,6.19
2019-02-10T07:42:28.925Z,6.26
2019-02-10T07:43:28.957Z,6.22
2019-02-10T07:44:28.922Z,6.19
2019-02-10T07:45:28.909Z,6.29
2019-02-10T07:46:28.894Z,6.29
2019-02-10T07:47:28.897Z,6.26
2019-02-10T07:48:28.895Z,6.26
2019-02-10T07:49:28.869Z,6.34
2019-02-10T07:50:28.904Z,6.28
2019-02-10T07:51:28.885Z,6.39
2019-02-10T07:52:39.280Z,6.36
2019-02-10T07:54:51.190Z,6.39
2019-02-10T07:55:51.194Z,6.41
2019-02-10T07:56:51.210Z,6.44
2019-02-10T07:57:51.172Z,6.44
2019-02-10T07:58:51.161Z,6.47
2019-02-10T07:59:51.137Z,6.49
2019-02-10T08:00:51.127Z,6.38
2019-02-10T08:01:51.128Z,6.52
2019-02-10T08:02:51.134Z,6.53
2019-02-10T08:03:51.099Z,6.56
2019-02-10T08:04:51.081Z,6.56
2019-02-10T08:05:51.076Z,6.54
2019-02-10T08:06:51.123Z,6.59
2019-02-10T08:07:51.056Z,6.54
2019-02-10T08:08:51.054Z,6.54
2019-02-10T08:09:51.036Z,6.56
2019-02-10T08:10:51.039Z,6.67
2019-02-10T08:11:51.008Z,6.70
2019-02-10T08:12:51.018Z,6.60
2019-02-10T08:13:50.992Z,6.68
2019-02-10T08:14:51.001Z,6.60
2019-02-10T08:15:50.973Z,6.64
2019-02-10T08:16:50.984Z,6.54
2019-02-10T08:17:59.871Z,6.60
2019-02-10T08:18:50.947Z,6.67
2019-02-10T08:20:00.409Z,6.64
2019-02-10T08:22:08.356Z,6.57
2019-02-10T08:23:08.361Z,6.68
2019-02-10T08:24:17.216Z,6.62
2019-02-10T08:25:17.280Z,6.64
2019-02-10T08:26:17.772Z,6.59
2019-02-10T08:27:17.811Z,6.67
2019-02-10T08:28:17.847Z,6.53
2019-02-10T08:29:17.377Z,6.67
2019-02-10T08:30:17.420Z,6.59
2019-02-10T08:31:17.436Z,6.54
2019-02-10T08:32:17.474Z,6.60
2019-02-10T08:34:25.636Z,6.65
2019-02-10T08:35:36.055Z,6.54
2019-02-10T08:36:34.054Z,6.50
2019-02-10T08:38:35.715Z,6.64
2019-02-10T08:39:35.817Z,6.60
2019-02-10T08:40:35.714Z,6.57
2019-02-10T08:41:35.754Z,6.59
2019-02-10T08:42:35.744Z,6.53
2019-02-10T08:43:35.663Z,6.52
2019-02-10T08:44:35.648Z,6.49
2019-02-10T08:45:35.648Z,6.57
2019-02-10T08:46:35.681Z,6.52
2019-02-10T08:47:35.618Z,6.50
2019-02-10T08:48:35.628Z,6.54
2019-02-10T08:49:35.614Z,6.59
2019-02-10T08:50:35.583Z,6.54
2019-02-10T08:51:35.581Z,6.60
2019-02-10T08:52:35.563Z,6.62
2019-02-10T08:53:35.664Z,6.54
2019-02-10T08:54:35.542Z,6.65
2019-02-10T08:55:35.545Z,6.56
2019-02-10T08:56:36.636Z,6.53
2019-02-10T08:57:35.530Z,6.59
2019-02-10T08:58:35.517Z,6.65
2019-02-10T08:59:35.510Z,6.60
2019-02-10T09:00:35.508Z,6.54
2019-02-10T09:01:35.474Z,6.57
2019-02-10T09:02:35.461Z,6.57
2019-02-10T09:03:35.481Z,6.50
2019-02-10T09:04:35.463Z,6.52
2019-02-10T09:05:35.425Z,6.50
2019-02-10T09:06:35.439Z,6.56
2019-02-10T09:07:35.430Z,6.57
2019-02-10T09:08:35.407Z,6.56
2019-02-10T09:09:35.407Z,6.50
2019-02-10T09:10:35.424Z,6.49
2019-02-10T09:11:35.395Z,6.41
2019-02-10T09:12:35.365Z,6.41
2019-02-10T09:13:35.346Z,6.46
2019-02-10T09:14:35.345Z,6.39
2019-02-10T09:15:35.334Z,6.39
2019-02-10T09:16:35.330Z,6.36
2019-02-10T09:17:35.325Z,6.36
2019-02-10T09:18:35.313Z,6.38
2019-02-10T09:19:35.281Z,6.38
2019-02-10T09:20:35.307Z,6.38
2019-02-10T09:21:35.267Z,6.36
2019-02-10T09:22:35.256Z,6.34
2019-02-10T09:23:35.253Z,6.26
2019-02-10T09:24:35.250Z,6.28
2019-02-10T09:25:35.242Z,6.22
2019-02-10T09:26:35.227Z,6.31
2019-02-10T09:27:35.217Z,6.20
2019-02-10T09:28:35.204Z,6.20
2019-02-10T09:29:35.187Z,6.19
2019-02-10T09:30:35.215Z,6.20
2019-02-10T09:31:35.174Z,6.19
2019-02-10T09:32:35.152Z,6.22
2019-02-10T09:33:35.171Z,6.22
2019-02-10T09:34:35.141Z,6.25
2019-02-10T09:35:35.147Z,6.26
2019-02-10T09:36:35.118Z,6.22
2019-02-10T09:37:35.100Z,6.22
2019-02-10T09:38:35.093Z,6.20
2019-02-10T09:39:35.115Z,6.17
2019-02-10T09:40:35.087Z,6.16
2019-02-10T09:41:35.068Z,6.28
2019-02-10T09:42:35.057Z,6.26
2019-02-10T09:43:35.070Z,6.22
2019-02-10T09:44:35.059Z,6.28
2019-02-10T09:45:35.034Z,6.25
2019-02-10T09:46:35.073Z,6.31
2019-02-10T09:47:35.010Z,6.22
2019-02-10T09:48:35.015Z,6.26
2019-02-10T09:49:34.996Z,6.26
2019-02-10T09:50:35.004Z,6.41
2019-02-10T09:51:36.839Z,6.34
2019-02-10T09:52:37.443Z,6.32
2019-02-10T09:53:37.115Z,6.34
2019-02-10T09:54:35.791Z,6.32
2019-02-10T09:55:36.383Z,6.32
2019-02-10T09:56:57.887Z,6.35
2019-02-10T09:57:39.373Z,6.34
2019-02-10T09:58:44.221Z,6.34
2019-02-10T09:59:37.842Z,6.26
2019-02-10T10:00:42.727Z,6.32
2019-02-10T10:01:34.971Z,6.28
2019-02-10T10:02:35.485Z,6.28
2019-02-10T10:03:34.978Z,6.26
2019-02-10T10:04:34.872Z,6.15
2019-02-10T10:05:35.755Z,6.25
2019-02-10T10:06:34.824Z,6.29
2019-02-10T10:07:36.147Z,6.29
2019-02-10T10:08:34.809Z,6.19
2019-02-10T10:09:34.817Z,6.28
2019-02-10T10:10:34.795Z,6.31
2019-02-10T10:11:34.789Z,6.22
2019-02-10T10:12:34.754Z,6.31
2019-02-10T10:13:34.740Z,6.25
2019-02-10T10:14:34.814Z,6.26
2019-02-10T10:15:34.748Z,6.22
2019-02-10T10:16:34.777Z,6.19
2019-02-10T10:17:34.703Z,6.10
2019-02-10T10:18:34.700Z,6.19
2019-02-10T10:19:34.675Z,6.13
2019-02-10T10:20:34.658Z,6.16
2019-02-10T10:21:34.671Z,6.12
2019-02-10T10:22:34.635Z,6.22
2019-02-10T10:23:34.705Z,6.15
2019-02-10T10:24:34.638Z,6.16
2019-02-10T10:25:34.719Z,6.19
2019-02-10T10:26:34.626Z,6.17
2019-02-10T10:27:34.622Z,6.13
2019-02-10T10:28:34.619Z,5.99
2019-02-10T10:29:34.561Z,6.06
2019-02-10T10:30:34.582Z,5.99
2019-02-10T10:31:34.598Z,6.01
2019-02-10T10:32:34.553Z,5.99
2019-02-10T10:33:34.571Z,5.99
2019-02-10T10:34:34.585Z,6.05
2019-02-10T10:35:34.518Z,6.06
2019-02-10T10:36:44.245Z,6.01
2019-02-10T10:37:34.469Z,6.02
2019-02-10T10:38:34.480Z,6.06
2019-02-10T10:39:34.467Z,5.99
2019-02-10T10:40:34.530Z,6.06
2019-02-10T10:41:34.450Z,6.06
2019-02-10T10:42:34.449Z,5.99
2019-02-10T10:43:34.490Z,6.02
2019-02-10T10:44:34.463Z,6.02
2019-02-10T10:45:34.440Z,6.01
2019-02-10T10:46:34.426Z,6.01
2019-02-10T10:47:34.430Z,6.13
2019-02-10T10:48:34.397Z,6.16
2019-02-10T10:49:34.393Z,6.16
2019-02-10T10:50:34.365Z,6.15
2019-02-10T10:51:34.369Z,6.12
2019-02-10T10:52:34.345Z,6.17
2019-02-10T10:53:34.361Z,6.16
2019-02-10T10:54:42.419Z,6.12
2019-02-10T10:55:35.293Z,6.19
2019-02-10T10:56:34.328Z,6.15
2019-02-10T10:57:34.278Z,6.12
2019-02-10T10:58:34.272Z,6.17
2019-02-10T10:59:34.284Z,6.15
2019-02-10T11:00:34.274Z,6.19
2019-02-10T11:01:34.252Z,6.19
2019-02-10T11:02:34.225Z,6.17
2019-02-10T11:03:34.236Z,6.20
2019-02-10T11:04:34.219Z,6.25
2019-02-10T11:05:34.234Z,6.22
2019-02-10T11:06:34.241Z,6.22
2019-02-10T11:07:34.265Z,6.22
2019-02-10T11:08:34.167Z,6.25
2019-02-10T11:09:35.656Z,6.31
2019-02-10T11:10:34.179Z,6.17
2019-02-10T11:11:34.179Z,6.22
2019-02-10T11:12:34.137Z,6.20
2019-02-10T11:13:34.110Z,6.25
2019-02-10T11:14:34.112Z,6.29
2019-02-10T11:15:34.103Z,6.25
2019-02-10T11:16:34.123Z,6.34
2019-02-10T11:17:34.119Z,6.34
2019-02-10T11:18:34.113Z,6.35
2019-02-10T11:19:34.074Z,6.38
2019-02-10T11:20:34.051Z,6.38
2019-02-10T11:21:34.045Z,6.35
2019-02-10T11:22:34.030Z,6.39
2019-02-10T11:23:34.038Z,6.38
2019-02-10T11:24:33.995Z,6.43
2019-02-10T11:25:33.983Z,6.53
2019-02-10T11:26:33.994Z,6.46
2019-02-10T11:27:34.040Z,6.52
2019-02-10T11:28:33.964Z,6.57
2019-02-10T11:29:33.985Z,6.54
2019-02-10T11:30:33.955Z,6.53
2019-02-10T11:31:33.923Z,6.65
2019-02-10T11:32:33.952Z,6.67
2019-02-10T11:33:34.079Z,6.59
2019-02-10T11:34:33.910Z,6.71
2019-02-10T11:35:33.962Z,6.78
2019-02-10T11:36:33.899Z,6.70
2019-02-10T11:37:33.870Z,6.72
2019-02-10T11:38:33.905Z,6.80
2019-02-10T11:39:33.857Z,6.78
2019-02-10T11:40:33.868Z,6.86
2019-02-10T11:41:33.847Z,6.93
2019-02-10T11:42:33.833Z,6.90
2019-02-10T11:43:34.163Z,6.87
2019-02-10T11:44:33.851Z,6.92
2019-02-10T11:45:33.784Z,6.90
2019-02-10T11:46:33.804Z,7.00
2019-02-10T11:47:33.817Z,6.95
2019-02-10T11:48:33.771Z,7.07
2019-02-10T11:49:33.749Z,7.03
2019-02-10T11:50:33.787Z,7.11
2019-02-10T11:51:33.721Z,7.13
2019-02-10T11:52:33.747Z,7.15
2019-02-10T11:53:33.709Z,7.13
2019-02-10T11:54:33.689Z,7.28
2019-02-10T11:55:34.163Z,7.21
2019-02-10T11:56:33.669Z,7.15
2019-02-10T11:57:33.661Z,7.18
2019-02-10T11:58:33.673Z,7.31
2019-02-10T11:59:33.755Z,7.19
2019-02-10T12:00:33.706Z,7.21
2019-02-10T12:01:33.621Z,7.21
2019-02-10T12:02:38.087Z,7.25
2019-02-10T12:03:33.604Z,7.22
2019-02-10T12:04:33.603Z,7.28
2019-02-10T12:05:33.770Z,7.23
2019-02-10T12:06:33.988Z,7.26
2019-02-10T12:07:33.727Z,7.28
2019-02-10T12:08:35.809Z,7.31
2019-02-10T12:09:33.771Z,7.33
2019-02-10T12:10:33.855Z,7.33
2019-02-10T12:11:33.675Z,7.33
2019-02-10T12:12:33.945Z,7.36
2019-02-10T12:13:33.879Z,7.41
2019-02-10T12:14:33.764Z,7.41
2019-02-10T12:15:33.733Z,7.40
2019-02-10T12:16:33.884Z,7.40
2019-02-10T12:17:33.539Z,7.41
2019-02-10T12:18:33.498Z,7.40
2019-02-10T12:19:33.541Z,7.48
2019-02-10T12:20:33.460Z,7.41
2019-02-10T12:21:33.432Z,7.41
2019-02-10T12:22:33.482Z,7.44
2019-02-10T12:23:33.447Z,7.43
2019-02-10T12:24:33.395Z,7.44
2019-02-10T12:25:33.478Z,7.44
2019-02-10T12:26:33.381Z,7.40
2019-02-10T12:27:33.368Z,7.41
2019-02-10T12:28:33.390Z,7.41
2019-02-10T12:29:33.373Z,7.37
2019-02-10T12:30:33.368Z,7.40
2019-02-10T12:31:33.395Z,7.43
2019-02-10T12:32:33.302Z,7.36
2019-02-10T12:33:33.388Z,7.37
2019-02-10T12:34:33.303Z,7.44
2019-02-10T12:35:34.073Z,7.51
2019-02-10T12:36:33.304Z,7.50
2019-02-10T12:37:33.273Z,7.46
2019-02-10T12:38:33.248Z,7.44
2019-02-10T12:39:33.454Z,7.58
2019-02-10T12:40:33.292Z,7.59
2019-02-10T12:41:33.310Z,7.53
2019-02-10T12:42:33.246Z,7.59
2019-02-10T12:43:33.213Z,7.64
2019-02-10T12:44:33.174Z,7.66
2019-02-10T12:45:33.260Z,7.64
2019-02-10T12:46:33.152Z,7.64
2019-02-10T12:47:33.173Z,7.66
2019-02-10T12:48:33.135Z,7.56
2019-02-10T12:49:33.154Z,7.69
2019-02-10T12:50:33.184Z,7.61
2019-02-10T12:51:33.140Z,7.58
2019-02-10T12:52:33.244Z,7.77
2019-02-10T12:53:33.144Z,7.72
2019-02-10T12:54:33.084Z,7.74
2019-02-10T12:55:33.110Z,7.67
2019-02-10T12:56:33.116Z,7.75
2019-02-10T12:57:33.096Z,7.59
2019-02-10T12:58:33.043Z,7.70
2019-02-10T12:59:33.023Z,7.69
2019-02-10T13:00:33.008Z,7.75
2019-02-10T13:01:32.989Z,7.72
2019-02-10T13:02:33.026Z,7.69
2019-02-10T13:03:33.010Z,7.58
2019-02-10T13:04:33.014Z,7.72
2019-02-10T13:05:33.049Z,7.72
2019-02-10T13:06:33.153Z,7.75
2019-02-10T13:07:33.191Z,7.77
2019-02-10T13:08:32.912Z,7.72
2019-02-10T13:09:32.914Z,7.72
2019-02-10T13:10:32.875Z,7.74
2019-02-10T13:11:32.887Z,7.67
2019-02-10T13:12:32.863Z,7.81
2019-02-10T13:13:32.850Z,7.72
2019-02-10T13:14:32.933Z,7.78
2019-02-10T13:15:32.867Z,7.78
2019-02-10T13:16:32.834Z,7.74
2019-02-10T13:17:32.860Z,7.80
2019-02-10T13:18:32.824Z,7.83
2019-02-10T13:19:32.838Z,7.81
2019-02-10T13:20:32.895Z,7.84
2019-02-10T13:21:32.776Z,7.77
2019-02-10T13:22:32.919Z,7.81
2019-02-10T13:23:32.806Z,7.80
2019-02-10T13:24:33.097Z,7.96